Albion, CA

2:42 PM PDT on October 20, 2014 (GMT -0700)
Little River | Change Station
CLOSE
Current Station
Personal Weather Station
Location: Little River, CA
Elevation: 600 ft
Nearby Weather Stations
4.2 Earthquake: Rio Dell, California (1 day ago)  

Elev 600 ft 39.26 °N, 123.72 °W | Updated 7 minutes ago

Mostly Cloudy
Mostly Cloudy
64.5 °F
Feels Like 64.5 °F
N
3.0
Wind Variable Wind from WNW
Gusts 4.0 mph

Today
High -- | Low -- °F
--% Chance of Precip.
Yesterday
High -- | Low -- °F
Precip. -- in
7:29 AM 6:28 PM
Waning Crescent, 9% visible
Pressure 29.92 in
Visibility 10.0 miles
Clouds Few 5000 ft
Mostly Cloudy 6500 ft
Dew Point 57 °F
Humidity 77%
Rainfall 0.52 in
Snow Depth Not available.
UV 3 out of 12
Pollen 2.20 out of 12
Air Quality Not available.
Flu Activity Sporadic
METAR KUKI 202056Z AUTO VRB06KT 10SM -RA FEW050 BKN065 19/09 A2994 RMK AO2 RAB46 SLP132 P0000 60000 T01940094 58009

More Conditions Fewer Conditions

Pressure 29.92 in
Visibility 10.0 miles
Clouds Few 5000 ft
Mostly Cloudy 6500 ft
Dew Point 57 °F
Humidity 77%
Rainfall 0.52 in
Snow Depth Not available.
UV 3 out of 12
Pollen 2.20 out of 12
Air Quality Not available.
Flu Activity Sporadic
METAR KUKI 202056Z AUTO VRB06KT 10SM -RA FEW050 BKN065 19/09 A2994 RMK AO2 RAB46 SLP132 P0000 60000 T01940094 58009

More Conditions Fewer Conditions

10-Day Weather Forecast

Almanac

Astronomy

Oct. 20, 2014 Rise Set
Actual Time 7:29 AM PDT 6:28 PM PDT
Civil Twilight 7:02 AM PDT 6:55 PM PDT
Nautical Twilight 6:31 AM PDT 7:27 PM PDT
Astronomical Twilight 6:00 AM PDT 7:58 PM PDT
Moon 4:24 AM PDT 4:53 PM PDT
Length of Visible Light 11h 53m
Length of Day
10h 58m
Waning Crescent, 9% of the Moon is Illuminated
Today
Waning Crescent
Oct 23
New
Oct 30
First Quarter
Nov 6
Full
Nov 14
Last Quarter

Today's Extremes

State Highs State Lows

Community

WunderPhotos

Upload Photos

1,763,527 photos uploaded!

WunderBlogs® & News

Nearby

Snow Depth

Station Depth Elevation
CSS Lab 1 in 6900 ft
Independence Lake 0 in 8450 ft
Ward Creek #3 0 in 6750 ft
Tahoe City Cross 0 in 6750 ft
Rubicon #2 0 in 7500 ft

Earthquake Activity

City Distance Mag. Time & Date
Rio Dell, California 81 miles 4.2 7:24 AM PDT
2014-10-19
East Foothills, California 165 miles 2.6 8:16 AM PDT
2014-10-18
Minimum magnitude displayed is 2.5.

Coastal Water Temperatures

Place Temperature
Arena Cove, CA 61.0 °F
North Spit, CA 57.9 °F
Point Reyes, CA 61.0 °F
San Francisco, CA 62.1 °F
Richmond, CA 64.0 °F

Nearby Weather Stations